N62PT KCAK-KCAK
Flight info
| Callsign | N62PT |
|---|---|
| Flight time | 0h 50m |
| Altitude | 3000 |
| Route | EGGII |
| Aircraft | P28A/L-SDFRY/C |
Departure
| Time | 2026-05-05 22:48 |
|---|---|
| Airport | Akron Canton Regional Airport (KCAK) |
Arrival
| Time | 2026-05-05 23:38 |
|---|---|
| Airport | Akron Canton Regional Airport (KCAK) |
| Time | Latitude | Longitude | Altitude | Speed | Heading |
|---|---|---|---|---|---|
| 2026-05-05 22:16 | 40.91781 | -81.43489 | 1205 ft | 0 kts | 14° |
| 2026-05-05 22:38 | 40.91782 | -81.43489 | 1205 ft | 0 kts | 11° |
| 2026-05-05 22:39 | 40.91811 | -81.43501 | 1206 ft | 11 kts | 338° |
| 2026-05-05 22:39 | 40.91885 | -81.43523 | 1206 ft | 13 kts | 26° |
| 2026-05-05 22:39 | 40.91946 | -81.43477 | 1205 ft | 0 kts | 321° |
| 2026-05-05 22:46 | 40.91980 | -81.43501 | 1206 ft | 11 kts | 326° |
| 2026-05-05 22:46 | 40.91976 | -81.43616 | 1208 ft | 16 kts | 229° |
| 2026-05-05 22:46 | 40.91795 | -81.43883 | 1209 ft | 62 kts | 227° |
| 2026-05-05 22:47 | 40.91444 | -81.44373 | 1290 ft | 78 kts | 234° |
| 2026-05-05 22:47 | 40.91103 | -81.44916 | 1476 ft | 76 kts | 237° |
| 2026-05-05 22:47 | 40.90816 | -81.45496 | 1665 ft | 75 kts | 238° |
| 2026-05-05 22:47 | 40.90425 | -81.45919 | 1820 ft | 80 kts | 198° |
| 2026-05-05 22:48 | 40.89881 | -81.45760 | 1981 ft | 87 kts | 144° |
| 2026-05-05 22:48 | 40.89640 | -81.45029 | 2139 ft | 91 kts | 90° |
| 2026-05-05 22:48 | 40.89840 | -81.44233 | 2290 ft | 93 kts | 62° |
| 2026-05-05 22:48 | 40.90073 | -81.43433 | 2448 ft | 93 kts | 69° |
| 2026-05-05 22:49 | 40.90293 | -81.42610 | 2579 ft | 96 kts | 68° |
| 2026-05-05 22:49 | 40.90505 | -81.41775 | 2752 ft | 96 kts | 69° |
| 2026-05-05 22:49 | 40.90724 | -81.40936 | 2890 ft | 98 kts | 68° |
| 2026-05-05 22:49 | 40.90958 | -81.40043 | 2977 ft | 107 kts | 69° |
| 2026-05-05 22:50 | 40.91221 | -81.39069 | 2986 ft | 120 kts | 69° |
| 2026-05-05 22:50 | 40.91510 | -81.38009 | 2980 ft | 121 kts | 69° |
| 2026-05-05 22:50 | 40.91795 | -81.36974 | 2978 ft | 119 kts | 69° |
| 2026-05-05 22:50 | 40.92081 | -81.35942 | 2984 ft | 117 kts | 69° |
| 2026-05-05 22:51 | 40.92360 | -81.34944 | 2980 ft | 116 kts | 70° |
| 2026-05-05 22:51 | 40.92639 | -81.33948 | 2983 ft | 115 kts | 69° |
| 2026-05-05 22:51 | 40.92917 | -81.32951 | 2981 ft | 115 kts | 69° |
| 2026-05-05 22:51 | 40.93197 | -81.31965 | 2978 ft | 114 kts | 69° |
| 2026-05-05 22:52 | 40.93476 | -81.30987 | 2981 ft | 114 kts | 65° |
| 2026-05-05 22:52 | 40.93951 | -81.30174 | 2979 ft | 111 kts | 40° |
| 2026-05-05 22:52 | 40.94519 | -81.29465 | 2979 ft | 111 kts | 39° |
| 2026-05-05 22:52 | 40.95082 | -81.28768 | 2989 ft | 111 kts | 39° |
| 2026-05-05 22:53 | 40.95652 | -81.28075 | 2985 ft | 111 kts | 39° |
| 2026-05-05 22:53 | 40.96219 | -81.27386 | 2979 ft | 111 kts | 39° |
| 2026-05-05 22:53 | 40.96786 | -81.26685 | 2980 ft | 111 kts | 39° |
| 2026-05-05 22:53 | 40.97351 | -81.25985 | 2981 ft | 111 kts | 38° |
| 2026-05-05 22:54 | 40.97933 | -81.25321 | 2980 ft | 109 kts | 22° |
| 2026-05-05 22:54 | 40.98634 | -81.25187 | 2989 ft | 98 kts | 338° |
| 2026-05-05 22:54 | 40.99180 | -81.25623 | 2992 ft | 90 kts | 310° |
| 2026-05-05 22:54 | 40.99649 | -81.26190 | 2988 ft | 90 kts | 308° |
| 2026-05-05 22:55 | 41.00100 | -81.26763 | 2988 ft | 91 kts | 308° |
| 2026-05-05 22:55 | 41.00560 | -81.27344 | 2987 ft | 91 kts | 308° |
| 2026-05-05 22:55 | 41.01016 | -81.27927 | 2978 ft | 91 kts | 308° |
| 2026-05-05 22:55 | 41.01311 | -81.28606 | 2981 ft | 83 kts | 271° |
| 2026-05-05 22:56 | 41.01187 | -81.29349 | 2986 ft | 83 kts | 249° |
| 2026-05-05 22:56 | 41.00969 | -81.30055 | 2978 ft | 84 kts | 248° |
| 2026-05-05 22:56 | 41.00695 | -81.30749 | 2980 ft | 84 kts | 236° |
| 2026-05-05 22:56 | 41.00348 | -81.31379 | 2977 ft | 85 kts | 236° |
| 2026-05-05 22:57 | 40.99984 | -81.31994 | 2980 ft | 86 kts | 230° |
| 2026-05-05 22:57 | 40.99569 | -81.32575 | 2978 ft | 84 kts | 231° |
| 2026-05-05 22:57 | 40.99219 | -81.33089 | 2982 ft | 66 kts | 233° |
| 2026-05-05 22:57 | 40.98942 | -81.33508 | 2961 ft | 55 kts | 230° |
| 2026-05-05 22:58 | 40.98695 | -81.33893 | 2971 ft | 54 kts | 231° |
| 2026-05-05 22:58 | 40.98439 | -81.34293 | 2983 ft | 60 kts | 230° |
| 2026-05-05 22:58 | 40.98140 | -81.34731 | 2979 ft | 66 kts | 231° |
| 2026-05-05 22:58 | 40.97803 | -81.35190 | 2900 ft | 71 kts | 230° |
| 2026-05-05 22:59 | 40.97447 | -81.35660 | 2772 ft | 73 kts | 230° |
| 2026-05-05 22:59 | 40.97095 | -81.36140 | 2649 ft | 72 kts | 232° |
| 2026-05-05 22:59 | 40.96763 | -81.36629 | 2529 ft | 71 kts | 232° |
| 2026-05-05 22:59 | 40.96422 | -81.37132 | 2434 ft | 74 kts | 232° |
| 2026-05-05 23:00 | 40.95759 | -81.38132 | 2334 ft | 69 kts | 231° |
| 2026-05-05 23:00 | 40.95451 | -81.38621 | 2257 ft | 70 kts | 234° |
| 2026-05-05 23:00 | 40.95135 | -81.39132 | 2186 ft | 72 kts | 231° |
| 2026-05-05 23:01 | 40.94799 | -81.39641 | 2071 ft | 75 kts | 232° |
| 2026-05-05 23:01 | 40.94434 | -81.40154 | 1949 ft | 76 kts | 228° |
| 2026-05-05 23:01 | 40.94053 | -81.40645 | 1826 ft | 77 kts | 228° |
| 2026-05-05 23:01 | 40.93670 | -81.41142 | 1705 ft | 77 kts | 229° |
| 2026-05-05 23:02 | 40.93308 | -81.41672 | 1593 ft | 77 kts | 232° |
| 2026-05-05 23:02 | 40.92964 | -81.42232 | 1497 ft | 77 kts | 233° |
| 2026-05-05 23:02 | 40.92612 | -81.42749 | 1554 ft | 79 kts | 225° |
| 2026-05-05 23:02 | 40.92239 | -81.43222 | 1765 ft | 74 kts | 218° |
| 2026-05-05 23:03 | 40.91828 | -81.43620 | 1938 ft | 73 kts | 217° |
| 2026-05-05 23:03 | 40.91410 | -81.44000 | 2103 ft | 73 kts | 222° |
| 2026-05-05 23:03 | 40.91008 | -81.44429 | 2260 ft | 74 kts | 223° |
| 2026-05-05 23:03 | 40.90630 | -81.44875 | 2431 ft | 73 kts | 226° |
| 2026-05-05 23:04 | 40.90249 | -81.45322 | 2611 ft | 72 kts | 225° |
| 2026-05-05 23:04 | 40.89772 | -81.45533 | 2729 ft | 83 kts | 190° |
| 2026-05-05 23:04 | 40.89220 | -81.45364 | 2883 ft | 88 kts | 165° |
| 2026-05-05 23:04 | 40.88629 | -81.44969 | 2954 ft | 96 kts | 161° |
| 2026-05-05 23:05 | 40.87967 | -81.44564 | 2932 ft | 110 kts | 162° |
| 2026-05-05 23:05 | 40.87265 | -81.44148 | 2987 ft | 112 kts | 163° |
| 2026-05-05 23:05 | 40.86570 | -81.43732 | 2980 ft | 107 kts | 162° |
| 2026-05-05 23:05 | 40.85900 | -81.43328 | 2975 ft | 103 kts | 163° |
| 2026-05-05 23:06 | 40.85261 | -81.42933 | 2978 ft | 100 kts | 161° |
| 2026-05-05 23:06 | 40.84627 | -81.42555 | 2982 ft | 99 kts | 163° |
| 2026-05-05 23:06 | 40.84000 | -81.42220 | 2980 ft | 96 kts | 173° |
| 2026-05-05 23:06 | 40.83344 | -81.42053 | 2981 ft | 95 kts | 177° |
| 2026-05-05 23:07 | 40.82711 | -81.42097 | 2980 ft | 90 kts | 197° |
| 2026-05-05 23:07 | 40.82106 | -81.42291 | 2983 ft | 88 kts | 201° |
| 2026-05-05 23:07 | 40.81506 | -81.42502 | 2983 ft | 88 kts | 202° |
| 2026-05-05 23:07 | 40.80919 | -81.42732 | 2979 ft | 87 kts | 208° |
| 2026-05-05 23:08 | 40.80428 | -81.43168 | 2986 ft | 84 kts | 223° |
| 2026-05-05 23:08 | 40.79867 | -81.43398 | 2984 ft | 90 kts | 188° |
| 2026-05-05 23:08 | 40.79225 | -81.43328 | 2988 ft | 91 kts | 184° |
| 2026-05-05 23:08 | 40.78590 | -81.43273 | 2989 ft | 91 kts | 185° |
| 2026-05-05 23:09 | 40.77950 | -81.43236 | 2989 ft | 91 kts | 186° |
| 2026-05-05 23:09 | 40.77314 | -81.43207 | 2990 ft | 91 kts | 187° |
| 2026-05-05 23:09 | 40.76682 | -81.43201 | 2989 ft | 91 kts | 187° |
| 2026-05-05 23:09 | 40.76046 | -81.43208 | 2986 ft | 91 kts | 187° |
| 2026-05-05 23:10 | 40.75401 | -81.43060 | 2988 ft | 93 kts | 180° |
| 2026-05-05 23:10 | 40.74759 | -81.42919 | 2986 ft | 94 kts | 178° |
| 2026-05-05 23:10 | 40.74102 | -81.42750 | 2978 ft | 95 kts | 178° |
| 2026-05-05 23:10 | 40.73457 | -81.42591 | 2983 ft | 95 kts | 177° |
| 2026-05-05 23:11 | 40.72803 | -81.42430 | 2979 ft | 96 kts | 178° |
| 2026-05-05 23:11 | 40.72142 | -81.42345 | 2982 ft | 95 kts | 184° |
| 2026-05-05 23:11 | 40.71476 | -81.42294 | 2984 ft | 95 kts | 188° |
| 2026-05-05 23:11 | 40.70819 | -81.42256 | 2978 ft | 98 kts | 173° |
| 2026-05-05 23:12 | 40.70234 | -81.41727 | 2977 ft | 103 kts | 153° |
| 2026-05-05 23:12 | 40.69693 | -81.41126 | 2984 ft | 108 kts | 128° |
| 2026-05-05 23:12 | 40.69547 | -81.40138 | 2986 ft | 114 kts | 83° |
| 2026-05-05 23:12 | 40.69906 | -81.39214 | 2991 ft | 112 kts | 39° |
| 2026-05-05 23:13 | 40.70583 | -81.38819 | 2981 ft | 102 kts | 353° |
| 2026-05-05 23:13 | 40.71198 | -81.39084 | 2988 ft | 90 kts | 310° |
| 2026-05-05 23:13 | 40.71543 | -81.39748 | 2987 ft | 87 kts | 290° |
| 2026-05-05 23:13 | 40.71753 | -81.40488 | 2981 ft | 84 kts | 272° |
| 2026-05-05 23:14 | 40.71879 | -81.41229 | 2974 ft | 85 kts | 288° |
| 2026-05-05 23:14 | 40.72040 | -81.41966 | 2981 ft | 82 kts | 271° |
| 2026-05-05 23:14 | 40.72050 | -81.42731 | 2991 ft | 83 kts | 267° |
| 2026-05-05 23:14 | 40.72106 | -81.43484 | 2979 ft | 86 kts | 288° |
| 2026-05-05 23:15 | 40.72578 | -81.44019 | 2981 ft | 97 kts | 333° |
| 2026-05-05 23:15 | 40.73273 | -81.44061 | 2977 ft | 105 kts | 5° |
| 2026-05-05 23:15 | 40.73988 | -81.43859 | 2976 ft | 104 kts | 3° |
| 2026-05-05 23:15 | 40.74669 | -81.43522 | 2972 ft | 109 kts | 32° |
| 2026-05-05 23:16 | 40.75067 | -81.42662 | 2971 ft | 114 kts | 77° |
| 2026-05-05 23:16 | 40.74965 | -81.41653 | 2965 ft | 110 kts | 122° |
| 2026-05-05 23:16 | 40.74436 | -81.41000 | 2972 ft | 101 kts | 161° |
| 2026-05-05 23:16 | 40.73798 | -81.40677 | 2973 ft | 96 kts | 179° |
| 2026-05-05 23:17 | 40.73136 | -81.40604 | 2976 ft | 93 kts | 188° |
| 2026-05-05 23:17 | 40.72494 | -81.40636 | 2975 ft | 92 kts | 191° |
| 2026-05-05 23:17 | 40.71854 | -81.40677 | 2979 ft | 92 kts | 191° |
| 2026-05-05 23:17 | 40.71208 | -81.40715 | 2972 ft | 93 kts | 190° |
| 2026-05-05 23:18 | 40.70618 | -81.40934 | 2972 ft | 86 kts | 224° |
| 2026-05-05 23:18 | 40.70386 | -81.41605 | 2967 ft | 83 kts | 269° |
| 2026-05-05 23:18 | 40.70658 | -81.42285 | 2964 ft | 90 kts | 313° |
| 2026-05-05 23:18 | 40.71084 | -81.42844 | 2981 ft | 84 kts | 295° |
| 2026-05-05 23:19 | 40.71451 | -81.43449 | 2975 ft | 91 kts | 321° |
| 2026-05-05 23:19 | 40.72112 | -81.43570 | 2969 ft | 102 kts | 4° |
| 2026-05-05 23:19 | 40.72799 | -81.43360 | 2981 ft | 99 kts | 354° |
| 2026-05-05 23:19 | 40.73488 | -81.43320 | 2977 ft | 100 kts | 354° |
| 2026-05-05 23:20 | 40.74191 | -81.43274 | 2978 ft | 100 kts | 354° |
| 2026-05-05 23:20 | 40.74876 | -81.43052 | 2974 ft | 108 kts | 26° |
| 2026-05-05 23:20 | 40.75425 | -81.42337 | 2970 ft | 110 kts | 44° |
| 2026-05-05 23:20 | 40.75930 | -81.41569 | 2972 ft | 110 kts | 45° |
| 2026-05-05 23:21 | 40.76426 | -81.40819 | 2978 ft | 110 kts | 45° |
| 2026-05-05 23:21 | 40.76938 | -81.40037 | 2978 ft | 110 kts | 45° |
| 2026-05-05 23:21 | 40.77438 | -81.39272 | 2978 ft | 111 kts | 45° |
| 2026-05-05 23:21 | 40.77941 | -81.38496 | 2976 ft | 110 kts | 45° |
| 2026-05-05 23:22 | 40.78298 | -81.37608 | 2979 ft | 111 kts | 73° |
| 2026-05-05 23:22 | 40.78497 | -81.36609 | 2975 ft | 112 kts | 75° |
| 2026-05-05 23:22 | 40.78687 | -81.35614 | 2993 ft | 111 kts | 74° |
| 2026-05-05 23:22 | 40.78876 | -81.34624 | 3003 ft | 111 kts | 74° |
| 2026-05-05 23:23 | 40.79064 | -81.33621 | 3009 ft | 113 kts | 75° |
| 2026-05-05 23:23 | 40.79253 | -81.32606 | 3009 ft | 114 kts | 75° |
| 2026-05-05 23:23 | 40.79445 | -81.31590 | 3003 ft | 115 kts | 75° |
| 2026-05-05 23:23 | 40.79634 | -81.30576 | 3003 ft | 115 kts | 75° |
| 2026-05-05 23:24 | 40.80039 | -81.29716 | 2999 ft | 109 kts | 32° |
| 2026-05-05 23:24 | 40.80721 | -81.29436 | 3004 ft | 98 kts | 347° |
| 2026-05-05 23:24 | 40.81280 | -81.29809 | 3004 ft | 87 kts | 301° |
| 2026-05-05 23:24 | 40.81550 | -81.30513 | 3007 ft | 86 kts | 285° |
| 2026-05-05 23:25 | 40.81760 | -81.31255 | 3007 ft | 87 kts | 285° |
| 2026-05-05 23:25 | 40.81967 | -81.32021 | 3004 ft | 87 kts | 285° |
| 2026-05-05 23:25 | 40.82172 | -81.32764 | 3006 ft | 87 kts | 289° |
| 2026-05-05 23:25 | 40.82481 | -81.33462 | 3007 ft | 88 kts | 295° |
| 2026-05-05 23:26 | 40.82820 | -81.34142 | 3011 ft | 88 kts | 297° |
| 2026-05-05 23:26 | 40.83163 | -81.34813 | 3008 ft | 88 kts | 296° |
| 2026-05-05 23:26 | 40.83505 | -81.35485 | 3002 ft | 88 kts | 296° |
| 2026-05-05 23:26 | 40.83993 | -81.35995 | 2991 ft | 96 kts | 336° |
| 2026-05-05 23:27 | 40.84681 | -81.35943 | 2999 ft | 102 kts | 3° |
| 2026-05-05 23:27 | 40.85384 | -81.35707 | 3000 ft | 104 kts | 8° |
| 2026-05-05 23:27 | 40.86059 | -81.35350 | 2997 ft | 106 kts | 16° |
| 2026-05-05 23:27 | 40.86741 | -81.34989 | 3001 ft | 104 kts | 14° |
| 2026-05-05 23:28 | 40.87429 | -81.34639 | 2999 ft | 104 kts | 13° |
| 2026-05-05 23:28 | 40.88112 | -81.34296 | 2994 ft | 104 kts | 14° |
| 2026-05-05 23:28 | 40.88781 | -81.33968 | 2998 ft | 103 kts | 13° |
| 2026-05-05 23:28 | 40.89462 | -81.33625 | 3001 ft | 104 kts | 14° |
| 2026-05-05 23:29 | 40.90139 | -81.33286 | 2998 ft | 104 kts | 13° |
| 2026-05-05 23:29 | 40.90824 | -81.32945 | 3004 ft | 104 kts | 14° |
| 2026-05-05 23:29 | 40.91504 | -81.32610 | 2991 ft | 105 kts | 12° |
| 2026-05-05 23:29 | 40.92188 | -81.32269 | 2993 ft | 105 kts | 13° |
| 2026-05-05 23:30 | 40.92881 | -81.31924 | 2998 ft | 105 kts | 13° |
| 2026-05-05 23:30 | 40.93542 | -81.31511 | 2999 ft | 107 kts | 27° |
| 2026-05-05 23:30 | 40.94175 | -81.30953 | 3003 ft | 108 kts | 28° |
| 2026-05-05 23:30 | 40.94800 | -81.30395 | 2992 ft | 108 kts | 28° |
| 2026-05-05 23:31 | 40.95398 | -81.29807 | 2995 ft | 107 kts | 31° |
| 2026-05-05 23:31 | 40.96002 | -81.29207 | 3000 ft | 107 kts | 30° |
| 2026-05-05 23:31 | 40.96608 | -81.28625 | 3001 ft | 106 kts | 21° |
| 2026-05-05 23:31 | 40.97287 | -81.28531 | 3000 ft | 96 kts | 336° |
| 2026-05-05 23:32 | 40.97757 | -81.29055 | 2996 ft | 87 kts | 290° |
| 2026-05-05 23:32 | 40.97852 | -81.29833 | 2998 ft | 85 kts | 271° |
| 2026-05-05 23:32 | 40.97865 | -81.30615 | 2997 ft | 85 kts | 269° |
| 2026-05-05 23:32 | 40.97868 | -81.31407 | 2994 ft | 86 kts | 269° |
| 2026-05-05 23:33 | 40.97871 | -81.32195 | 2999 ft | 86 kts | 269° |
| 2026-05-05 23:33 | 40.97912 | -81.32987 | 2994 ft | 87 kts | 282° |
| 2026-05-05 23:33 | 40.98137 | -81.33738 | 2993 ft | 88 kts | 294° |
| 2026-05-05 23:33 | 40.98298 | -81.34487 | 2990 ft | 85 kts | 262° |
| 2026-05-05 23:34 | 40.97974 | -81.35129 | 2996 ft | 89 kts | 222° |
| 2026-05-05 23:34 | 40.97471 | -81.35605 | 2994 ft | 84 kts | 226° |
| 2026-05-05 23:34 | 40.97026 | -81.36118 | 2889 ft | 84 kts | 229° |
| 2026-05-05 23:34 | 40.96640 | -81.36692 | 2759 ft | 83 kts | 237° |
| 2026-05-05 23:35 | 40.96270 | -81.37270 | 2629 ft | 83 kts | 233° |
| 2026-05-05 23:35 | 40.95880 | -81.37844 | 2472 ft | 84 kts | 232° |
| 2026-05-05 23:35 | 40.95499 | -81.38433 | 2301 ft | 85 kts | 234° |
| 2026-05-05 23:35 | 40.95119 | -81.39036 | 2166 ft | 84 kts | 233° |
| 2026-05-05 23:36 | 40.94749 | -81.39627 | 2073 ft | 82 kts | 234° |
| 2026-05-05 23:36 | 40.94384 | -81.40189 | 1965 ft | 80 kts | 230° |
| 2026-05-05 23:36 | 40.93998 | -81.40731 | 1825 ft | 82 kts | 228° |
| 2026-05-05 23:36 | 40.93602 | -81.41297 | 1683 ft | 86 kts | 229° |
| 2026-05-05 23:37 | 40.93193 | -81.41882 | 1596 ft | 85 kts | 230° |
| 2026-05-05 23:37 | 40.92816 | -81.42408 | 1487 ft | 74 kts | 230° |
| 2026-05-05 23:37 | 40.92451 | -81.42893 | 1385 ft | 75 kts | 228° |
| 2026-05-05 23:37 | 40.92135 | -81.43378 | 1303 ft | 66 kts | 236° |
| 2026-05-05 23:38 | 40.91840 | -81.43806 | 1210 ft | 55 kts | 226° |
| 2026-05-05 23:38 | 40.91652 | -81.44080 | 1206 ft | 1 kts | 225° |